createdAt,value
2018-12-20T00:00:19.785Z,40.87
2018-12-20T00:02:48.316Z,46.50
2018-12-20T00:05:16.507Z,47.40
2018-12-20T00:07:44.801Z,49.00
2018-12-20T00:10:12.980Z,44.73
2018-12-20T00:12:41.524Z,40.13
2018-12-20T00:15:09.982Z,43.40
2018-12-20T00:17:43.791Z,44.50
2018-12-20T00:20:11.923Z,37.47
2018-12-20T00:22:40.182Z,39.80
2018-12-20T00:25:09.654Z,38.27
2018-12-20T00:27:37.878Z,41.77
2018-12-20T00:30:06.219Z,44.27
2018-12-20T00:32:34.501Z,44.97
2018-12-20T00:35:02.943Z,41.27
2018-12-20T00:37:31.223Z,37.70
2018-12-20T00:40:06.249Z,36.20
2018-12-20T00:42:29.793Z,32.23
2018-12-20T00:44:58.731Z,29.83
2018-12-20T00:47:27.054Z,26.87
2018-12-20T00:49:55.749Z,29.80
2018-12-20T00:52:23.967Z,31.17
2018-12-20T00:54:52.136Z,32.27
2018-12-20T00:57:20.359Z,33.80
2018-12-20T00:59:48.717Z,38.03
2018-12-20T01:02:16.990Z,44.10
2018-12-20T01:04:45.214Z,45.57
2018-12-20T01:07:13.474Z,44.47
2018-12-20T01:09:41.693Z,45.77
2018-12-20T01:12:09.948Z,41.40
2018-12-20T01:14:45.174Z,43.87
2018-12-20T01:17:08.551Z,42.80
2018-12-20T01:19:36.757Z,44.77
2018-12-20T01:22:04.932Z,44.67
2018-12-20T01:24:33.226Z,43.37
2018-12-20T01:27:01.443Z,42.20
2018-12-20T01:29:29.651Z,48.10
2018-12-20T01:31:57.813Z,44.17
2018-12-20T01:34:26.058Z,44.83
2018-12-20T01:36:54.564Z,51.23
2018-12-20T01:39:23.072Z,36.47
2018-12-20T01:41:51.391Z,33.83
2018-12-20T01:44:19.641Z,32.53
2018-12-20T01:46:47.893Z,33.17
2018-12-20T01:49:16.147Z,31.43
2018-12-20T01:51:44.655Z,30.00
2018-12-20T01:54:12.936Z,31.30
2018-12-20T01:56:41.392Z,37.57
2018-12-20T01:59:09.822Z,37.57
2018-12-20T02:01:38.270Z,29.83
2018-12-20T02:04:06.800Z,32.67
2018-12-20T02:06:35.199Z,31.53
2018-12-20T02:09:05.902Z,31.80
2018-12-20T02:11:34.190Z,34.03
2018-12-20T02:14:02.501Z,33.97
2018-12-20T02:16:30.712Z,30.43
2018-12-20T02:18:58.961Z,32.07
2018-12-20T02:21:27.164Z,33.37
2018-12-20T02:23:55.500Z,32.43
2018-12-20T02:26:24.034Z,28.57
2018-12-20T02:28:52.346Z,37.30
2018-12-20T02:31:20.656Z,36.60
2018-12-20T02:33:48.971Z,32.00
2018-12-20T02:36:17.358Z,34.03
2018-12-20T02:38:46.315Z,29.10
2018-12-20T02:41:15.253Z,27.70
2018-12-20T02:43:43.440Z,33.07
2018-12-20T02:46:11.648Z,30.40
2018-12-20T02:48:39.906Z,26.97
2018-12-20T02:51:08.065Z,28.30
2018-12-20T02:53:36.253Z,28.20
2018-12-20T02:56:04.615Z,27.70
2018-12-20T02:58:32.901Z,32.03
2018-12-20T03:01:01.004Z,30.60
2018-12-20T03:03:29.088Z,30.87
2018-12-20T03:05:57.910Z,30.83
2018-12-20T03:08:26.162Z,28.40
2018-12-20T03:10:54.451Z,32.57
2018-12-20T03:13:22.554Z,32.60
2018-12-20T03:15:50.750Z,36.40
2018-12-20T03:18:19.131Z,31.47
2018-12-20T03:20:47.554Z,36.37
2018-12-20T03:23:15.763Z,32.33
2018-12-20T03:25:43.945Z,36.53
2018-12-20T03:28:12.188Z,30.00
2018-12-20T03:30:40.522Z,36.40
2018-12-20T03:33:10.490Z,29.23
2018-12-20T03:35:39.011Z,35.33
2018-12-20T03:38:07.204Z,31.87
2018-12-20T03:40:35.715Z,31.70
2018-12-20T03:43:04.232Z,32.20
2018-12-20T03:45:32.576Z,33.30
2018-12-20T03:48:00.989Z,32.50
2018-12-20T03:50:29.422Z,33.60
2018-12-20T03:52:57.801Z,34.80
2018-12-20T03:55:26.029Z,31.83
2018-12-20T03:57:54.222Z,30.20
2018-12-20T04:00:22.452Z,33.57
2018-12-20T04:02:50.687Z,32.73
2018-12-20T04:05:19.160Z,32.50
2018-12-20T04:07:47.384Z,33.03
2018-12-20T04:10:16.410Z,33.73
2018-12-20T04:12:44.826Z,33.13
2018-12-20T04:15:13.436Z,36.73
2018-12-20T04:17:41.618Z,36.23
2018-12-20T04:20:10.302Z,28.97
2018-12-20T04:22:38.671Z,34.17
2018-12-20T04:25:07.030Z,30.13
2018-12-20T04:27:38.626Z,40.50
2018-12-20T04:30:07.342Z,37.33
2018-12-20T04:32:36.333Z,36.87
2018-12-20T04:35:05.555Z,31.97
2018-12-20T04:37:34.068Z,31.13
2018-12-20T04:40:02.455Z,37.90
2018-12-20T04:42:30.829Z,30.03
2018-12-20T04:44:59.106Z,27.93
2018-12-20T04:47:28.111Z,26.00
2018-12-20T04:49:56.762Z,25.93
2018-12-20T04:52:25.685Z,24.83
2018-12-20T04:54:53.826Z,24.63
2018-12-20T04:57:22.905Z,29.17
2018-12-20T04:59:52.905Z,28.27
2018-12-20T05:02:22.057Z,28.67
2018-12-20T05:04:50.485Z,25.60
2018-12-20T05:07:18.758Z,28.67
2018-12-20T05:09:47.240Z,27.53
2018-12-20T05:12:15.475Z,26.77
2018-12-20T05:14:43.809Z,28.80
2018-12-20T05:17:12.367Z,28.43
2018-12-20T05:19:40.852Z,28.23
2018-12-20T05:22:09.258Z,22.67
2018-12-20T05:24:37.528Z,35.27
2018-12-20T05:27:05.794Z,38.20
2018-12-20T05:29:34.249Z,34.30
2018-12-20T05:32:02.506Z,30.70
2018-12-20T05:34:30.810Z,28.67
2018-12-20T05:37:01.942Z,32.07
2018-12-20T05:39:30.323Z,31.63
2018-12-20T05:41:58.622Z,29.93
2018-12-20T05:44:27.850Z,32.17
2018-12-20T05:46:56.083Z,32.20
2018-12-20T05:49:25.770Z,32.70
2018-12-20T05:51:54.561Z,33.77
2018-12-20T05:54:24.829Z,32.03
2018-12-20T05:56:58.688Z,32.00
2018-12-20T05:59:28.596Z,32.50
2018-12-20T06:01:57.699Z,28.33
2018-12-20T06:04:26.225Z,32.93
2018-12-20T06:06:55.016Z,32.20
2018-12-20T06:09:24.019Z,30.70
2018-12-20T06:14:36.901Z,31.70
2018-12-20T06:17:07.941Z,29.27
2018-12-20T06:19:36.413Z,26.20
2018-12-20T06:22:04.737Z,27.07
2018-12-20T06:24:34.959Z,27.40
2018-12-20T06:27:07.948Z,28.73
2018-12-20T06:29:38.825Z,25.57
2018-12-20T06:32:07.888Z,29.03
2018-12-20T06:34:36.045Z,28.83
2018-12-20T06:37:04.202Z,28.00
2018-12-20T06:39:33.324Z,27.90
2018-12-20T06:42:01.644Z,27.67
2018-12-20T06:44:29.778Z,27.37
2018-12-20T06:46:57.885Z,29.73
2018-12-20T06:49:34.773Z,22.43
2018-12-20T06:52:09.497Z,32.63
2018-12-20T06:54:42.357Z,29.43
2018-12-20T06:57:13.393Z,27.30
2018-12-20T06:59:45.690Z,26.83
2018-12-20T07:02:14.089Z,28.73
2018-12-20T07:04:42.669Z,26.67
2018-12-20T07:07:11.250Z,26.47
2018-12-20T07:09:39.582Z,25.13
2018-12-20T07:12:07.805Z,27.40
2018-12-20T07:14:42.848Z,29.80
2018-12-20T07:17:14.319Z,27.67
2018-12-20T07:19:45.212Z,27.90
2018-12-20T07:22:13.626Z,24.73
2018-12-20T07:24:42.062Z,23.37
2018-12-20T07:27:10.492Z,25.10
2018-12-20T07:29:39.802Z,24.70
2018-12-20T07:32:08.198Z,19.93
2018-12-20T07:34:36.851Z,24.20
2018-12-20T07:37:05.145Z,21.07
2018-12-20T07:39:33.452Z,20.53
2018-12-20T07:42:02.481Z,19.43
2018-12-20T07:44:34.079Z,15.37
2018-12-20T07:47:07.753Z,17.87
2018-12-20T07:49:35.988Z,19.03
2018-12-20T07:52:07.086Z,18.00
2018-12-20T07:54:35.476Z,19.27
2018-12-20T07:57:06.625Z,21.20
2018-12-20T07:59:37.200Z,23.93
2018-12-20T08:02:06.164Z,23.83
2018-12-20T08:04:35.173Z,22.50
2018-12-20T08:07:03.487Z,23.10
2018-12-20T08:09:31.845Z,23.30
2018-12-20T08:12:01.305Z,25.10
2018-12-20T08:14:29.479Z,26.63
2018-12-20T08:16:58.009Z,24.47
2018-12-20T08:19:26.157Z,27.43
2018-12-20T08:21:56.507Z,28.20
2018-12-20T08:24:24.606Z,28.00
2018-12-20T08:26:57.232Z,30.10
2018-12-20T08:29:26.128Z,28.77
2018-12-20T08:31:55.336Z,27.50
2018-12-20T08:34:25.475Z,25.93
2018-12-20T08:36:55.133Z,27.93
2018-12-20T08:39:23.351Z,27.07
2018-12-20T08:41:52.060Z,26.07
2018-12-20T08:44:22.611Z,30.17
2018-12-20T08:46:54.467Z,29.87
2018-12-20T08:49:21.213Z,29.97
2018-12-20T08:51:50.373Z,26.73
2018-12-20T08:54:18.522Z,30.23
2018-12-20T08:56:46.670Z,30.67
2018-12-20T08:59:15.996Z,28.47
2018-12-20T09:01:46.436Z,29.17
2018-12-20T09:04:16.251Z,28.33
2018-12-20T09:06:44.713Z,27.90
2018-12-20T09:09:14.894Z,32.73
2018-12-20T09:11:46.874Z,29.87
2018-12-20T09:14:17.432Z,32.60
2018-12-20T09:16:50.004Z,34.67
2018-12-20T09:19:19.120Z,32.13
2018-12-20T09:21:50.987Z,31.63
2018-12-20T09:24:23.012Z,30.00
2018-12-20T09:26:54.660Z,27.73
2018-12-20T09:29:33.170Z,28.80
2018-12-20T09:32:06.277Z,33.57
2018-12-20T09:34:34.720Z,31.20
2018-12-20T09:37:03.719Z,30.53
2018-12-20T09:39:34.941Z,28.80
2018-12-20T09:42:03.157Z,33.33
2018-12-20T09:47:18.870Z,33.93
2018-12-20T09:49:48.833Z,35.83
2018-12-20T09:52:24.906Z,33.33
2018-12-20T09:54:57.589Z,32.93
2018-12-20T09:57:30.334Z,35.87
2018-12-20T09:59:58.770Z,35.03
2018-12-20T10:02:26.891Z,35.10
2018-12-20T10:04:55.287Z,33.77
2018-12-20T10:07:27.814Z,35.37
2018-12-20T10:09:56.456Z,33.30
2018-12-20T10:12:24.712Z,45.70
2018-12-20T10:14:53.076Z,40.97
2018-12-20T10:17:23.574Z,41.47
2018-12-20T10:19:52.787Z,37.63
2018-12-20T10:22:21.616Z,37.70
2018-12-20T10:24:52.212Z,35.10
2018-12-20T10:27:20.435Z,36.30
2018-12-20T10:29:52.414Z,36.47
2018-12-20T10:32:20.747Z,38.07
2018-12-20T10:34:48.939Z,40.07
2018-12-20T10:37:17.252Z,44.23
2018-12-20T10:39:46.296Z,40.07
2018-12-20T10:42:14.451Z,37.23
2018-12-20T10:44:43.129Z,36.67
2018-12-20T10:47:17.382Z,38.20
2018-12-20T10:49:45.565Z,39.63
2018-12-20T10:52:13.720Z,42.00
2018-12-20T10:54:42.637Z,40.50
2018-12-20T10:57:13.398Z,45.67
2018-12-20T10:59:42.862Z,44.63
2018-12-20T11:02:16.632Z,44.80
2018-12-20T11:04:50.179Z,41.97
2018-12-20T11:07:24.803Z,36.70
2018-12-20T11:09:58.814Z,41.27
2018-12-20T11:12:32.243Z,40.27
2018-12-20T11:15:00.435Z,43.77
2018-12-20T11:17:37.050Z,43.17
2018-12-20T11:20:01.038Z,43.10
2018-12-20T11:22:29.760Z,45.90
2018-12-20T11:24:59.165Z,43.30
2018-12-20T11:27:27.551Z,39.27
2018-12-20T11:29:56.040Z,43.90
2018-12-20T11:32:24.982Z,43.67
2018-12-20T11:34:54.043Z,47.63
2018-12-20T11:37:22.424Z,41.03
2018-12-20T11:39:59.206Z,44.77
2018-12-20T11:42:23.468Z,48.00
2018-12-20T11:44:52.300Z,46.03
2018-12-20T11:47:26.023Z,49.50
2018-12-20T11:49:54.268Z,41.73
2018-12-20T11:52:22.595Z,44.17
2018-12-20T11:54:54.128Z,49.00
2018-12-20T11:57:22.403Z,46.20
2018-12-20T11:59:52.083Z,48.00
2018-12-20T12:02:24.674Z,50.37
2018-12-20T12:04:51.387Z,50.07
2018-12-20T12:07:19.710Z,49.87
2018-12-20T12:09:48.468Z,43.83
2018-12-20T12:12:16.658Z,44.47
2018-12-20T12:14:44.990Z,44.10
2018-12-20T12:17:13.191Z,37.03
2018-12-20T12:19:41.432Z,48.03
2018-12-20T12:22:09.560Z,49.43
2018-12-20T12:24:37.787Z,45.83
2018-12-20T12:27:06.424Z,44.60
2018-12-20T12:29:34.949Z,43.60
2018-12-20T12:32:03.203Z,48.13
2018-12-20T12:34:31.512Z,39.93
2018-12-20T12:36:59.674Z,49.43
2018-12-20T12:39:28.098Z,50.00
2018-12-20T12:41:56.212Z,46.80
2018-12-20T12:44:24.376Z,45.23
2018-12-20T12:46:53.029Z,47.20
2018-12-20T12:49:24.070Z,46.40
2018-12-20T12:51:53.219Z,47.33
2018-12-20T12:54:21.969Z,49.37
2018-12-20T12:56:50.729Z,41.70
2018-12-20T12:59:19.115Z,42.57
2018-12-20T13:01:48.016Z,46.63
2018-12-20T13:04:16.265Z,43.60
2018-12-20T13:06:44.998Z,43.90
2018-12-20T13:09:13.145Z,44.20
2018-12-20T13:11:41.320Z,44.70
2018-12-20T13:14:09.611Z,37.40
2018-12-20T13:16:38.707Z,41.40
2018-12-20T13:19:07.369Z,41.50
2018-12-20T13:21:36.051Z,43.50
2018-12-20T13:24:04.659Z,42.23
2018-12-20T13:26:32.898Z,46.70
2018-12-20T13:29:01.014Z,44.43
2018-12-20T13:31:29.224Z,49.03
2018-12-20T13:33:57.331Z,53.20
2018-12-20T13:36:25.456Z,49.80
2018-12-20T13:38:54.232Z,52.83
2018-12-20T13:41:22.670Z,49.93
2018-12-20T13:43:50.836Z,54.83
2018-12-20T13:46:19.036Z,56.87
2018-12-20T13:48:47.157Z,62.73
2018-12-20T13:51:15.291Z,58.23
2018-12-20T13:53:43.480Z,55.70
2018-12-20T13:56:11.533Z,55.87
2018-12-20T13:58:39.805Z,54.53
2018-12-20T14:01:08.065Z,55.73
2018-12-20T14:03:36.617Z,55.93
2018-12-20T14:06:06.586Z,52.33
2018-12-20T14:08:34.809Z,48.43
2018-12-20T14:11:03.275Z,51.80
2018-12-20T14:13:32.162Z,50.60
2018-12-20T14:16:00.730Z,49.97
2018-12-20T14:18:31.174Z,50.17
2018-12-20T14:21:00.589Z,46.50
2018-12-20T14:23:29.284Z,46.90
2018-12-20T14:25:58.607Z,46.80
2018-12-20T14:28:27.293Z,45.53
2018-12-20T14:30:55.604Z,36.17
2018-12-20T14:33:23.827Z,43.53
2018-12-20T14:38:35.667Z,46.80
2018-12-20T14:41:03.937Z,49.03
2018-12-20T14:43:32.351Z,56.70
2018-12-20T14:46:00.535Z,54.70
2018-12-20T14:48:30.150Z,49.50
2018-12-20T14:50:59.756Z,51.07
2018-12-20T14:53:28.843Z,41.57
2018-12-20T14:55:57.527Z,51.10
2018-12-20T14:58:25.850Z,46.53
2018-12-20T15:00:55.555Z,51.27
2018-12-20T15:03:24.730Z,52.13
2018-12-20T15:05:54.181Z,53.27
2018-12-20T15:08:23.050Z,52.00
2018-12-20T15:10:51.812Z,49.90
2018-12-20T15:13:20.498Z,47.83
2018-12-20T15:15:49.361Z,53.47
2018-12-20T15:18:18.241Z,46.57
2018-12-20T15:20:46.973Z,54.47
2018-12-20T15:23:16.067Z,54.93
2018-12-20T15:25:46.063Z,57.70
2018-12-20T15:28:15.138Z,53.37
2018-12-20T15:30:44.902Z,54.83
2018-12-20T15:33:14.317Z,53.40
2018-12-20T15:35:43.268Z,56.10
2018-12-20T15:38:12.270Z,56.57
2018-12-20T15:40:42.182Z,64.27
2018-12-20T15:43:10.961Z,54.17
2018-12-20T15:45:42.718Z,66.73
2018-12-20T15:48:11.464Z,61.67
2018-12-20T15:50:39.887Z,59.33
2018-12-20T15:53:08.696Z,54.83
2018-12-20T15:55:37.306Z,60.50
2018-12-20T15:58:06.651Z,62.80
2018-12-20T16:00:35.280Z,61.80
2018-12-20T16:03:03.867Z,62.30
2018-12-20T16:05:34.563Z,57.87
2018-12-20T16:08:08.086Z,57.53
2018-12-20T16:10:36.830Z,61.47
2018-12-20T16:13:05.254Z,62.13
2018-12-20T16:15:33.448Z,59.23
2018-12-20T16:18:02.380Z,66.77
2018-12-20T16:20:30.900Z,66.53
2018-12-20T16:23:00.360Z,79.93
2018-12-20T16:25:29.421Z,67.57
2018-12-20T16:27:57.850Z,65.50
2018-12-20T16:30:27.851Z,68.53
2018-12-20T16:32:56.241Z,60.10
2018-12-20T16:35:24.485Z,72.03
2018-12-20T16:37:52.710Z,62.97
2018-12-20T16:40:21.633Z,71.93
2018-12-20T16:42:50.090Z,69.00
2018-12-20T16:45:18.446Z,68.97
2018-12-20T16:47:47.296Z,65.97
2018-12-20T16:50:16.460Z,62.67
2018-12-20T16:52:44.676Z,64.77
2018-12-20T16:55:13.343Z,64.73
2018-12-20T16:57:41.970Z,73.77
2018-12-20T17:00:13.903Z,61.50
2018-12-20T17:02:42.579Z,54.07
2018-12-20T17:05:10.879Z,75.73
2018-12-20T17:07:39.470Z,67.83
2018-12-20T17:10:08.533Z,64.30
2018-12-20T17:12:36.894Z,67.20
2018-12-20T17:15:07.064Z,58.30
2018-12-20T17:17:35.384Z,68.93
2018-12-20T17:20:04.944Z,70.50
2018-12-20T17:22:33.374Z,69.57
2018-12-20T17:25:01.456Z,70.03
2018-12-20T17:27:30.233Z,69.03
2018-12-20T17:29:58.513Z,55.13
2018-12-20T17:32:27.284Z,72.53
2018-12-20T17:34:56.000Z,64.37
2018-12-20T17:37:24.773Z,64.80
2018-12-20T17:39:53.378Z,63.60
2018-12-20T17:42:21.844Z,60.20
2018-12-20T17:44:50.147Z,64.10
2018-12-20T17:47:20.144Z,69.33
2018-12-20T17:49:48.701Z,66.80
2018-12-20T17:52:17.064Z,77.00
2018-12-20T17:54:49.316Z,72.77
2018-12-20T17:57:17.573Z,75.30
2018-12-20T17:59:45.788Z,63.13
2018-12-20T18:02:14.618Z,68.17
2018-12-20T18:04:43.083Z,70.30
2018-12-20T18:07:12.108Z,68.90
2018-12-20T18:09:41.144Z,75.87
2018-12-20T18:12:10.412Z,73.20
2018-12-20T18:14:41.449Z,73.90
2018-12-20T18:17:11.043Z,74.13
2018-12-20T18:19:39.646Z,69.20
2018-12-20T18:22:09.789Z,68.77
2018-12-20T18:24:39.889Z,75.97
2018-12-20T18:27:10.095Z,75.60
2018-12-20T18:29:38.818Z,80.77
2018-12-20T18:32:08.490Z,82.77
2018-12-20T18:34:37.403Z,81.70
2018-12-20T18:37:06.498Z,77.00
2018-12-20T18:39:35.927Z,73.03
2018-12-20T18:42:07.768Z,71.17
2018-12-20T18:44:36.086Z,77.70
2018-12-20T18:47:04.490Z,86.90
2018-12-20T18:49:33.131Z,84.30
2018-12-20T18:52:01.359Z,82.20
2018-12-20T18:54:29.661Z,80.90
2018-12-20T18:56:57.878Z,77.00
2018-12-20T18:59:26.718Z,69.87
2018-12-20T19:01:55.188Z,71.10
2018-12-20T19:04:23.375Z,64.27
2018-12-20T19:06:51.728Z,77.13
2018-12-20T19:09:21.536Z,70.33
2018-12-20T19:11:50.908Z,66.83
2018-12-20T19:14:19.550Z,65.07
2018-12-20T19:16:49.585Z,72.87
2018-12-20T19:19:18.495Z,76.70
2018-12-20T19:21:48.163Z,64.43
2018-12-20T19:24:18.441Z,64.93
2018-12-20T19:26:48.394Z,51.17
2018-12-20T19:29:19.394Z,58.53
2018-12-20T19:31:50.374Z,63.50
2018-12-20T19:34:18.874Z,64.87
2018-12-20T19:36:48.140Z,55.57
2018-12-20T19:39:18.264Z,69.03
2018-12-20T19:41:47.525Z,46.73
2018-12-20T19:44:15.855Z,52.73
2018-12-20T19:46:44.152Z,45.67
2018-12-20T19:49:12.360Z,37.60
2018-12-20T19:51:40.571Z,45.87
2018-12-20T19:54:08.737Z,47.50
2018-12-20T19:56:37.678Z,47.13
2018-12-20T19:59:06.286Z,45.83
2018-12-20T20:01:34.872Z,41.97
2018-12-20T20:04:03.427Z,40.00
2018-12-20T20:06:31.597Z,40.43
2018-12-20T20:09:00.071Z,37.17
2018-12-20T20:11:29.590Z,37.53
2018-12-20T20:13:58.877Z,32.67
2018-12-20T20:16:27.284Z,46.63
2018-12-20T20:18:56.669Z,43.27
2018-12-20T20:21:24.864Z,38.53
2018-12-20T20:23:53.598Z,34.83
2018-12-20T20:26:23.055Z,39.23
2018-12-20T20:28:51.262Z,44.73
2018-12-20T20:31:19.582Z,44.10
2018-12-20T20:33:48.395Z,49.80
2018-12-20T20:36:16.591Z,55.17
2018-12-20T20:38:44.716Z,54.93
2018-12-20T20:41:14.487Z,51.80
2018-12-20T20:43:43.087Z,42.53
2018-12-20T20:46:13.003Z,47.77
2018-12-20T20:48:41.590Z,46.53
2018-12-20T20:51:10.128Z,48.37
2018-12-20T20:53:38.393Z,42.23
2018-12-20T20:56:06.630Z,44.03
2018-12-20T20:58:35.100Z,41.77
2018-12-20T21:01:04.623Z,46.23
2018-12-20T21:03:34.009Z,44.10
2018-12-20T21:06:03.343Z,41.67
2018-12-20T21:08:32.466Z,42.50
2018-12-20T21:11:00.778Z,39.53
2018-12-20T21:13:29.098Z,42.17
2018-12-20T21:15:58.134Z,46.33
2018-12-20T21:18:26.731Z,46.77
2018-12-20T21:20:55.053Z,46.70
2018-12-20T21:23:23.201Z,46.07
2018-12-20T21:25:51.475Z,41.07
2018-12-20T21:28:19.981Z,41.47
2018-12-20T21:30:48.352Z,48.50
2018-12-20T21:33:20.396Z,45.97
2018-12-20T21:35:48.628Z,51.83
2018-12-20T21:38:17.105Z,41.60
2018-12-20T21:40:46.110Z,40.57
2018-12-20T21:43:14.889Z,49.03
2018-12-20T21:45:47.941Z,36.50
2018-12-20T21:48:16.553Z,45.83
2018-12-20T21:50:46.054Z,45.63
2018-12-20T21:53:21.019Z,54.33
2018-12-20T21:55:51.099Z,50.13
2018-12-20T21:58:24.670Z,57.17
2018-12-20T22:00:53.474Z,53.33
2018-12-20T22:03:23.116Z,46.27
2018-12-20T22:05:51.344Z,43.27
2018-12-20T22:08:19.972Z,60.73
2018-12-20T22:10:48.206Z,55.77
2018-12-20T22:13:17.732Z,53.50
2018-12-20T22:15:45.883Z,53.67
2018-12-20T22:18:14.013Z,52.40
2018-12-20T22:20:47.301Z,49.73
2018-12-20T22:23:12.431Z,55.83
2018-12-20T22:25:40.609Z,55.13
2018-12-20T22:28:08.720Z,49.60
2018-12-20T22:30:37.403Z,52.67
2018-12-20T22:33:05.573Z,45.53
2018-12-20T22:35:33.802Z,49.50
2018-12-20T22:38:01.917Z,56.43
2018-12-20T22:40:30.064Z,54.87
2018-12-20T22:42:58.209Z,53.13
2018-12-20T22:45:26.489Z,45.60
2018-12-20T22:47:54.754Z,55.07
2018-12-20T22:50:22.895Z,55.10
2018-12-20T22:52:51.039Z,44.70
2018-12-20T22:55:19.258Z,53.73
2018-12-20T22:57:47.506Z,51.33
2018-12-20T23:00:16.964Z,46.93
2018-12-20T23:02:45.226Z,45.47
2018-12-20T23:05:13.421Z,46.53
2018-12-20T23:07:41.592Z,46.37
2018-12-20T23:10:09.917Z,53.40
2018-12-20T23:12:38.157Z,43.73
2018-12-20T23:15:06.481Z,47.43
2018-12-20T23:17:34.668Z,46.30
2018-12-20T23:20:03.000Z,49.23
2018-12-20T23:22:31.159Z,48.83
2018-12-20T23:24:59.411Z,43.00
2018-12-20T23:27:27.617Z,51.60
2018-12-20T23:29:55.776Z,46.30
2018-12-20T23:32:24.033Z,47.23
2018-12-20T23:34:52.203Z,46.13
2018-12-20T23:37:20.411Z,36.90
2018-12-20T23:39:48.591Z,42.30
2018-12-20T23:42:16.928Z,41.03
2018-12-20T23:44:45.282Z,39.70
2018-12-20T23:47:13.564Z,44.10
2018-12-20T23:49:41.709Z,38.93
2018-12-20T23:52:09.866Z,44.77
2018-12-20T23:54:38.023Z,43.43
2018-12-20T23:57:06.236Z,43.77
2018-12-20T23:59:34.467Z,44.90
